createdAt,value
2024-05-09T00:00:35.560Z,10.02
2024-05-09T00:03:07.226Z,10.13
2024-05-09T00:05:34.159Z,9.00
2024-05-09T00:08:01.045Z,9.85
2024-05-09T00:10:35.405Z,10.93
2024-05-09T00:13:04.924Z,10.07
2024-05-09T00:15:33.171Z,9.88
2024-05-09T00:18:00.073Z,11.05
2024-05-09T00:20:35.102Z,10.98
2024-05-09T00:23:06.864Z,10.05
2024-05-09T00:25:33.862Z,10.07
2024-05-09T00:28:00.419Z,10.23
2024-05-09T00:30:33.607Z,8.43
2024-05-09T00:33:03.815Z,11.75
2024-05-09T00:35:31.012Z,11.07
2024-05-09T00:37:57.824Z,10.88
2024-05-09T00:40:35.137Z,11.70
2024-05-09T00:43:06.346Z,10.30
2024-05-09T00:45:34.799Z,12.13
2024-05-09T00:48:04.859Z,11.02
2024-05-09T00:50:36.603Z,10.88
2024-05-09T00:53:06.716Z,12.15
2024-05-09T00:55:37.653Z,10.40
2024-05-09T00:58:05.193Z,11.68
2024-05-09T01:00:38.514Z,11.68
2024-05-09T01:03:08.205Z,11.25
2024-05-09T01:05:35.732Z,13.80
2024-05-09T01:08:03.119Z,12.05
2024-05-09T01:10:34.479Z,11.38
2024-05-09T01:13:03.584Z,11.02
2024-05-09T01:15:30.450Z,12.95
2024-05-09T01:17:58.250Z,12.65
2024-05-09T01:20:36.545Z,11.95
2024-05-09T01:23:08.827Z,15.20
2024-05-09T01:25:35.662Z,15.82
2024-05-09T01:28:02.334Z,11.95
2024-05-09T01:30:34.605Z,13.88
2024-05-09T01:33:04.183Z,12.82
2024-05-09T01:35:31.218Z,14.95
2024-05-09T01:37:57.938Z,13.90
2024-05-09T01:40:33.550Z,14.30
2024-05-09T01:43:04.897Z,14.15
2024-05-09T01:45:31.697Z,10.80
2024-05-09T01:47:58.794Z,15.35
2024-05-09T01:50:36.994Z,12.23
2024-05-09T01:53:07.567Z,13.57
2024-05-09T01:55:34.286Z,12.35
2024-05-09T01:58:00.879Z,17.45
2024-05-09T02:00:37.616Z,13.30
2024-05-09T02:03:10.003Z,13.80
2024-05-09T02:05:37.679Z,14.40
2024-05-09T02:08:05.302Z,15.05
2024-05-09T02:10:33.058Z,14.02
2024-05-09T02:13:00.108Z,19.95
2024-05-09T02:15:26.891Z,14.50
2024-05-09T02:17:53.680Z,13.27
2024-05-09T02:20:30.097Z,15.07
2024-05-09T02:23:03.815Z,15.10
2024-05-09T02:25:30.953Z,16.77
2024-05-09T02:27:57.497Z,12.82
2024-05-09T02:30:31.069Z,15.00
2024-05-09T02:33:05.844Z,15.35
2024-05-09T02:35:32.775Z,15.82
2024-05-09T02:37:59.765Z,13.25
2024-05-09T02:40:35.451Z,13.77
2024-05-09T02:43:05.087Z,14.80
2024-05-09T02:45:31.807Z,14.52
2024-05-09T02:47:58.731Z,13.60
2024-05-09T02:50:33.718Z,13.60
2024-05-09T02:53:05.135Z,12.80
2024-05-09T02:55:32.059Z,17.08
2024-05-09T02:57:58.690Z,14.52
2024-05-09T03:00:34.465Z,14.23
2024-05-09T03:03:07.142Z,13.82
2024-05-09T03:05:34.187Z,15.18
2024-05-09T03:08:01.033Z,16.80
2024-05-09T03:10:29.237Z,15.27
2024-05-09T03:13:09.315Z,16.40
2024-05-09T03:15:36.648Z,14.25
2024-05-09T03:18:04.537Z,15.38
2024-05-09T03:20:34.843Z,15.82
2024-05-09T03:23:03.391Z,16.65
2024-05-09T03:25:30.244Z,16.33
2024-05-09T03:27:56.891Z,14.25
2024-05-09T03:30:38.026Z,14.73
2024-05-09T03:33:18.057Z,17.20
2024-05-09T03:35:46.652Z,16.60
2024-05-09T03:38:14.112Z,16.65
2024-05-09T03:40:47.801Z,14.90
2024-05-09T03:43:14.861Z,16.75
2024-05-09T03:45:45.519Z,18.25
2024-05-09T03:48:12.762Z,14.68
2024-05-09T03:50:39.694Z,15.48
2024-05-09T03:53:11.291Z,18.67
2024-05-09T03:55:38.180Z,16.67
2024-05-09T03:58:05.089Z,15.63
2024-05-09T04:00:37.750Z,15.50
2024-05-09T04:03:09.304Z,16.75
2024-05-09T04:05:39.773Z,18.08
2024-05-09T04:08:07.387Z,13.15
2024-05-09T04:10:35.109Z,16.45
2024-05-09T04:13:03.462Z,19.10
2024-05-09T04:15:30.637Z,15.80
2024-05-09T04:17:57.497Z,18.10
2024-05-09T04:20:33.714Z,16.02
2024-05-09T04:23:06.239Z,17.92
2024-05-09T04:25:33.124Z,16.35
2024-05-09T04:27:59.711Z,17.45
2024-05-09T04:30:34.775Z,14.57
2024-05-09T04:33:07.134Z,15.13
2024-05-09T04:35:35.299Z,15.35
2024-05-09T04:38:02.076Z,16.95
2024-05-09T04:40:33.884Z,14.15
2024-05-09T04:43:03.891Z,16.02
2024-05-09T04:45:30.622Z,16.67
2024-05-09T04:47:57.679Z,16.40
2024-05-09T04:50:33.897Z,17.70
2024-05-09T04:53:04.909Z,15.50
2024-05-09T04:55:32.294Z,14.63
2024-05-09T04:57:58.860Z,12.80
2024-05-09T05:00:34.445Z,17.60
2024-05-09T05:03:13.809Z,15.18
2024-05-09T05:05:42.765Z,16.77
2024-05-09T05:08:13.379Z,13.05
2024-05-09T05:10:40.833Z,13.95
2024-05-09T05:13:17.909Z,15.73
2024-05-09T05:15:57.266Z,15.15
2024-05-09T05:18:25.960Z,16.63
2024-05-09T05:20:53.506Z,18.15
2024-05-09T05:23:21.606Z,18.90
2024-05-09T05:25:49.965Z,16.17
2024-05-09T05:28:17.488Z,18.35
2024-05-09T05:30:44.568Z,15.68
2024-05-09T05:33:16.060Z,15.95
2024-05-09T05:35:43.268Z,18.45
2024-05-09T05:38:11.000Z,15.05
2024-05-09T05:40:39.063Z,13.40
2024-05-09T05:43:08.661Z,16.80
2024-05-09T05:45:35.662Z,14.82
2024-05-09T05:48:06.609Z,15.90
2024-05-09T05:50:36.940Z,22.30
2024-05-09T05:53:09.175Z,16.15
2024-05-09T05:55:37.444Z,17.35
2024-05-09T05:58:04.441Z,17.50
2024-05-09T06:00:38.144Z,15.25
2024-05-09T06:03:07.587Z,16.33
2024-05-09T06:05:35.858Z,13.68
2024-05-09T06:08:02.569Z,16.15
2024-05-09T06:10:37.485Z,16.25
2024-05-09T06:13:07.084Z,16.30
2024-05-09T06:15:33.750Z,16.50
2024-05-09T06:18:00.586Z,18.60
2024-05-09T06:20:35.051Z,14.38
2024-05-09T06:23:04.889Z,15.75
2024-05-09T06:25:31.848Z,17.38
2024-05-09T06:28:00.340Z,16.88
2024-05-09T06:30:36.570Z,17.08
2024-05-09T06:33:07.693Z,17.30
2024-05-09T06:35:34.977Z,17.33
2024-05-09T06:38:01.882Z,17.83
2024-05-09T06:40:36.535Z,19.65
2024-05-09T06:45:37.033Z,16.70
2024-05-09T06:48:04.018Z,15.73
2024-05-09T06:50:36.861Z,16.38
2024-05-09T06:53:05.149Z,15.63
2024-05-09T06:55:31.869Z,15.77
2024-05-09T06:57:58.406Z,16.48
2024-05-09T07:00:30.938Z,16.95
2024-05-09T07:03:13.648Z,15.45
2024-05-09T07:05:43.052Z,16.40
2024-05-09T07:08:09.917Z,15.82
2024-05-09T07:10:37.187Z,17.33
2024-05-09T07:13:14.028Z,20.35
2024-05-09T07:15:41.849Z,16.95
2024-05-09T07:18:13.215Z,17.85
2024-05-09T07:20:40.300Z,15.27
2024-05-09T07:23:11.171Z,16.77
2024-05-09T07:25:38.615Z,16.33
2024-05-09T07:28:05.857Z,15.25
2024-05-09T07:30:34.496Z,15.80
2024-05-09T07:33:03.099Z,15.48
2024-05-09T07:35:30.902Z,15.85
2024-05-09T07:37:57.786Z,15.35
2024-05-09T07:40:32.737Z,15.93
2024-05-09T07:43:07.646Z,14.25
2024-05-09T07:52:32.483Z,13.65
2024-05-09T07:53:39.604Z,14.23
2024-05-09T07:56:11.877Z,13.27
2024-05-09T07:58:39.366Z,12.38
2024-05-09T08:01:06.245Z,11.82
2024-05-09T08:03:33.235Z,13.45
2024-05-09T08:06:00.038Z,12.38
2024-05-09T08:08:26.649Z,13.57
2024-05-09T08:10:53.447Z,14.00
2024-05-09T08:13:20.297Z,9.68
2024-05-09T08:15:46.991Z,13.68
2024-05-09T08:18:13.791Z,14.63
2024-05-09T08:20:41.997Z,11.95
2024-05-09T08:23:08.768Z,11.75
2024-05-09T08:25:35.360Z,14.80
2024-05-09T08:28:04.610Z,16.00
2024-05-09T08:30:36.725Z,12.88
2024-05-09T08:33:05.863Z,11.57
2024-05-09T08:35:33.194Z,12.48
2024-05-09T08:37:59.907Z,12.52
2024-05-09T08:40:34.077Z,11.10
2024-05-09T08:43:06.751Z,13.65
2024-05-09T08:45:34.885Z,13.93
2024-05-09T08:48:05.778Z,13.60
2024-05-09T08:50:38.774Z,11.02
2024-05-09T08:53:07.843Z,13.95
2024-05-09T08:55:37.369Z,10.65
2024-05-09T08:58:07.562Z,12.70
2024-05-09T09:00:37.425Z,13.05
2024-05-09T09:03:09.361Z,14.15
2024-05-09T09:05:39.095Z,11.05
2024-05-09T09:08:08.235Z,13.85
2024-05-09T09:10:35.751Z,15.77
2024-05-09T09:13:04.758Z,13.15
2024-05-09T09:15:32.111Z,12.48
2024-05-09T09:18:02.137Z,15.45
2024-05-09T09:20:35.816Z,13.48
2024-05-09T09:23:04.531Z,15.43
2024-05-09T09:25:31.536Z,14.75
2024-05-09T09:27:58.806Z,14.40
2024-05-09T09:30:36.195Z,14.38
2024-05-09T09:33:08.101Z,13.80
2024-05-09T09:35:36.115Z,13.75
2024-05-09T09:38:03.449Z,11.35
2024-05-09T09:40:41.094Z,15.43
2024-05-09T09:43:18.052Z,13.32
2024-05-09T09:45:46.381Z,12.85
2024-05-09T09:48:14.766Z,10.73
2024-05-09T09:50:42.240Z,12.70
2024-05-09T09:53:10.672Z,12.05
2024-05-09T09:55:38.012Z,13.52
2024-05-09T09:58:06.398Z,13.23
2024-05-09T10:00:34.535Z,12.77
2024-05-09T10:03:02.218Z,12.52
2024-05-09T10:05:30.011Z,10.88
2024-05-09T10:07:58.386Z,10.20
2024-05-09T10:10:31.987Z,11.02
2024-05-09T10:13:03.698Z,9.90
2024-05-09T10:15:42.720Z,14.27
2024-05-09T10:18:10.529Z,11.93
2024-05-09T10:20:46.830Z,13.40
2024-05-09T10:23:36.231Z,14.02
2024-05-09T10:26:06.423Z,12.95
2024-05-09T10:28:37.904Z,11.30
2024-05-09T10:31:12.965Z,13.98
2024-05-09T10:33:51.855Z,13.18
2024-05-09T10:36:23.744Z,10.90
2024-05-09T10:38:52.151Z,12.50
2024-05-09T10:41:19.683Z,12.63
2024-05-09T10:43:47.296Z,13.63
2024-05-09T10:46:18.867Z,11.00
2024-05-09T10:48:45.870Z,14.00
2024-05-09T10:51:13.421Z,14.27
2024-05-09T10:53:44.528Z,13.80
2024-05-09T10:56:13.007Z,11.10
2024-05-09T10:58:39.542Z,13.90
2024-05-09T11:01:07.395Z,11.90
2024-05-09T11:03:35.534Z,14.13
2024-05-09T11:06:02.692Z,12.30
2024-05-09T11:08:36.903Z,12.77
2024-05-09T11:11:07.447Z,13.80
2024-05-09T11:13:39.218Z,12.93
2024-05-09T11:16:20.772Z,12.73
2024-05-09T11:18:58.087Z,13.57
2024-05-09T11:21:25.320Z,15.25
2024-05-09T11:23:52.344Z,10.65
2024-05-09T11:26:21.390Z,11.35
2024-05-09T11:28:48.221Z,10.90
2024-05-09T11:31:14.888Z,12.90
2024-05-09T11:33:44.579Z,10.82
2024-05-09T11:36:11.372Z,14.00
2024-05-09T11:38:37.994Z,12.88
2024-05-09T11:41:05.501Z,12.82
2024-05-09T11:43:32.983Z,15.43
2024-05-09T11:46:00.281Z,13.30
2024-05-09T11:48:27.419Z,13.30
2024-05-09T11:50:55.533Z,15.52
2024-05-09T11:53:22.429Z,12.95
2024-05-09T11:55:49.116Z,13.75
2024-05-09T11:58:17.804Z,14.52
2024-05-09T12:00:45.266Z,13.68
2024-05-09T12:03:11.992Z,12.68
2024-05-09T12:05:38.680Z,13.27
2024-05-09T12:08:06.528Z,13.27
2024-05-09T12:10:35.610Z,14.75
2024-05-09T12:13:05.073Z,12.70
2024-05-09T12:15:33.872Z,12.73
2024-05-09T12:18:03.358Z,12.82
2024-05-09T12:20:36.695Z,13.10
2024-05-09T12:23:05.918Z,15.63
2024-05-09T12:25:32.531Z,11.90
2024-05-09T12:27:59.540Z,12.32
2024-05-09T12:30:35.303Z,12.85
2024-05-09T12:33:06.037Z,11.00
2024-05-09T12:35:32.989Z,12.80
2024-05-09T12:37:59.673Z,14.30
2024-05-09T12:40:34.471Z,14.35
2024-05-09T12:43:04.834Z,11.32
2024-05-09T12:45:31.946Z,12.45
2024-05-09T12:47:58.926Z,10.38
2024-05-09T12:50:31.981Z,12.73
2024-05-09T12:53:00.950Z,13.15
2024-05-09T12:55:28.540Z,10.80
2024-05-09T12:57:57.304Z,13.30
2024-05-09T13:00:31.079Z,12.52
2024-05-09T13:03:00.726Z,12.35
2024-05-09T13:05:27.797Z,13.52
2024-05-09T13:07:56.217Z,12.45
2024-05-09T13:10:29.408Z,13.15
2024-05-09T13:12:59.575Z,13.80
2024-05-09T13:15:26.536Z,12.75
2024-05-09T13:17:53.473Z,14.60
2024-05-09T13:20:29.027Z,12.73
2024-05-09T13:23:02.162Z,13.73
2024-05-09T13:25:28.859Z,12.10
2024-05-09T13:27:56.330Z,14.20
2024-05-09T13:30:29.748Z,15.43
2024-05-09T13:33:05.619Z,15.10
2024-05-09T13:35:34.378Z,13.32
2024-05-09T13:38:01.980Z,11.05
2024-05-09T13:40:33.623Z,11.82
2024-05-09T13:43:03.323Z,11.48
2024-05-09T13:45:30.137Z,14.48
2024-05-09T13:47:57.229Z,12.15
2024-05-09T13:50:32.931Z,13.88
2024-05-09T13:53:02.697Z,13.02
2024-05-09T13:55:29.282Z,15.32
2024-05-09T13:57:56.205Z,12.20
2024-05-09T14:00:37.321Z,13.85
2024-05-09T14:03:10.160Z,16.92
2024-05-09T14:05:36.993Z,13.95
2024-05-09T14:08:04.172Z,12.43
2024-05-09T14:10:32.137Z,15.20
2024-05-09T14:13:00.791Z,11.63
2024-05-09T14:15:27.814Z,11.55
2024-05-09T14:17:55.400Z,13.30
2024-05-09T14:20:30.355Z,12.00
2024-05-09T14:22:59.373Z,14.98
2024-05-09T14:25:28.394Z,12.65
2024-05-09T14:27:56.102Z,13.90
2024-05-09T14:30:30.553Z,14.45
2024-05-09T14:33:03.465Z,13.73
2024-05-09T14:35:30.175Z,13.60
2024-05-09T14:37:56.876Z,11.90
2024-05-09T14:40:36.636Z,12.68
2024-05-09T14:43:08.471Z,12.45
2024-05-09T14:45:35.541Z,13.43
2024-05-09T14:48:03.333Z,14.68
2024-05-09T14:50:36.018Z,12.48
2024-05-09T14:53:06.769Z,13.05
2024-05-09T14:55:35.719Z,13.50
2024-05-09T14:58:02.879Z,11.90
2024-05-09T15:00:35.428Z,14.82
2024-05-09T15:03:03.737Z,12.25
2024-05-09T15:05:30.516Z,12.70
2024-05-09T15:07:58.023Z,11.60
2024-05-09T15:10:33.667Z,14.45
2024-05-09T15:13:02.940Z,11.15
2024-05-09T15:15:29.916Z,11.68
2024-05-09T15:17:56.993Z,12.63
2024-05-09T15:20:31.276Z,11.80
2024-05-09T15:23:02.168Z,13.40
2024-05-09T15:25:28.978Z,15.40
2024-05-09T15:27:55.722Z,13.65
2024-05-09T15:32:51.931Z,15.57
2024-05-09T15:35:18.621Z,14.50
2024-05-09T15:37:48.176Z,14.73
2024-05-09T15:40:18.920Z,14.10
2024-05-09T15:42:53.286Z,14.32
2024-05-09T15:45:19.957Z,18.05
2024-05-09T15:47:46.774Z,15.63
2024-05-09T15:50:20.441Z,14.25
2024-05-09T15:52:55.312Z,14.00
2024-05-09T15:55:21.919Z,17.33
2024-05-09T15:57:48.622Z,18.25
2024-05-09T16:00:24.703Z,12.98
2024-05-09T16:02:59.917Z,15.55
2024-05-09T16:05:26.921Z,17.70
2024-05-09T16:07:53.915Z,15.95
2024-05-09T16:10:25.850Z,15.93
2024-05-09T16:12:58.590Z,15.15
2024-05-09T16:15:25.244Z,15.73
2024-05-09T16:17:51.940Z,16.40
2024-05-09T16:20:29.562Z,14.82
2024-05-09T16:23:04.854Z,17.13
2024-05-09T16:25:31.559Z,16.33
2024-05-09T16:27:58.357Z,16.17
2024-05-09T16:30:31.777Z,18.88
2024-05-09T16:35:28.745Z,18.10
2024-05-09T16:37:55.480Z,16.35
2024-05-09T16:40:30.064Z,17.92
2024-05-09T16:43:04.437Z,14.68
2024-05-09T16:45:31.398Z,16.17
2024-05-09T16:47:59.572Z,15.23
2024-05-09T16:50:31.569Z,17.88
2024-05-09T16:53:00.437Z,16.02
2024-05-09T16:55:27.364Z,19.40
2024-05-09T16:57:55.108Z,17.38
2024-05-09T17:00:31.609Z,15.70
2024-05-09T17:03:07.212Z,16.85
2024-05-09T17:05:34.889Z,17.13
2024-05-09T17:08:02.090Z,15.10
2024-05-09T17:10:33.057Z,14.30
2024-05-09T17:13:03.211Z,16.52
2024-05-09T17:15:31.026Z,15.98
2024-05-09T17:17:58.078Z,16.08
2024-05-09T17:20:31.865Z,15.60
2024-05-09T17:23:02.448Z,18.95
2024-05-09T17:25:29.355Z,17.55
2024-05-09T17:27:56.683Z,15.55
2024-05-09T17:30:29.423Z,17.88
2024-05-09T17:33:03.219Z,17.52
2024-05-09T17:35:29.911Z,17.13
2024-05-09T17:37:56.876Z,17.17
2024-05-09T17:42:53.329Z,17.23
2024-05-09T17:45:20.666Z,16.73
2024-05-09T17:47:47.711Z,16.85
2024-05-09T17:50:20.997Z,15.73
2024-05-09T17:52:53.705Z,20.52
2024-05-09T17:55:20.376Z,16.80
2024-05-09T17:57:47.052Z,16.85
2024-05-09T18:00:17.449Z,17.17
2024-05-09T18:02:48.287Z,15.88
2024-05-09T18:05:15.039Z,18.23
2024-05-09T18:07:41.752Z,16.15
2024-05-09T18:10:19.008Z,16.38
2024-05-09T18:12:49.050Z,20.40
2024-05-09T18:15:15.657Z,18.33
2024-05-09T18:17:42.656Z,16.52
2024-05-09T18:20:14.141Z,19.05
2024-05-09T18:22:46.244Z,17.80
2024-05-09T18:25:13.149Z,16.35
2024-05-09T18:27:39.795Z,19.42
2024-05-09T18:30:09.300Z,16.27
2024-05-09T18:32:36.228Z,17.00
2024-05-09T18:35:03.241Z,14.00
2024-05-09T18:37:29.967Z,19.33
2024-05-09T18:39:56.689Z,18.83
2024-05-09T18:42:23.235Z,17.38
2024-05-09T18:44:50.658Z,17.42
2024-05-09T18:47:20.010Z,14.02
2024-05-09T18:49:46.936Z,14.30
2024-05-09T18:52:13.631Z,15.93
2024-05-09T18:54:40.303Z,13.60
2024-05-09T18:57:06.881Z,14.30
2024-05-09T18:59:33.558Z,16.85
2024-05-09T19:02:00.265Z,15.05
2024-05-09T19:04:27.133Z,17.35
2024-05-09T19:06:53.949Z,17.83
2024-05-09T19:09:20.524Z,14.82
2024-05-09T19:11:47.115Z,15.30
2024-05-09T19:14:13.877Z,16.83
2024-05-09T19:16:41.892Z,17.05
2024-05-09T19:19:09.871Z,16.27
2024-05-09T19:21:39.113Z,17.13
2024-05-09T19:24:07.842Z,18.58
2024-05-09T19:26:34.572Z,18.35
2024-05-09T19:29:01.121Z,18.13
2024-05-09T19:31:27.761Z,18.08
2024-05-09T19:33:54.408Z,47.33
2024-05-09T19:36:21.027Z,28.48
2024-05-09T19:38:48.772Z,28.63
2024-05-09T19:41:15.426Z,26.15
2024-05-09T19:43:41.994Z,24.08
2024-05-09T19:46:08.657Z,22.15
2024-05-09T19:48:35.505Z,17.63
2024-05-09T19:51:02.966Z,21.85
2024-05-09T19:53:29.598Z,14.88
2024-05-09T19:55:57.759Z,16.23
2024-05-09T19:58:24.908Z,17.13
2024-05-09T20:00:51.762Z,23.02
2024-05-09T20:03:18.442Z,19.27
2024-05-09T20:05:46.735Z,18.98
2024-05-09T20:08:13.873Z,13.10
2024-05-09T20:10:40.520Z,14.75
2024-05-09T20:13:08.281Z,16.38
2024-05-09T20:15:36.643Z,23.80
2024-05-09T20:18:04.321Z,25.85
2024-05-09T20:20:37.692Z,20.05
2024-05-09T20:23:08.517Z,18.35
2024-05-09T20:25:35.096Z,16.77
2024-05-09T20:28:01.805Z,15.18
2024-05-09T20:30:32.439Z,13.55
2024-05-09T20:33:03.550Z,13.23
2024-05-09T20:35:33.915Z,14.15
2024-05-09T20:38:01.802Z,13.02
2024-05-09T20:40:33.822Z,14.65
2024-05-09T20:43:04.097Z,16.58
2024-05-09T20:45:30.948Z,13.82
2024-05-09T20:47:57.966Z,10.93
2024-05-09T20:50:35.543Z,12.93
2024-05-09T20:53:14.516Z,13.30
2024-05-09T20:55:43.083Z,13.75
2024-05-09T20:58:10.478Z,13.10
2024-05-09T21:00:40.959Z,12.93
2024-05-09T21:03:11.471Z,16.50
2024-05-09T21:05:38.954Z,16.40
2024-05-09T21:08:06.184Z,14.02
2024-05-09T21:10:34.095Z,12.07
2024-05-09T21:13:03.016Z,14.38
2024-05-09T21:15:30.602Z,15.73
2024-05-09T21:17:57.412Z,16.02
2024-05-09T21:20:30.584Z,14.15
2024-05-09T21:22:58.903Z,15.38
2024-05-09T21:25:25.791Z,14.43
2024-05-09T21:27:52.743Z,14.93
2024-05-09T21:30:31.399Z,18.55
2024-05-09T21:33:05.862Z,20.88
2024-05-09T21:35:32.658Z,18.13
2024-05-09T21:37:59.265Z,17.20
2024-05-09T21:40:33.346Z,17.40
2024-05-09T21:43:02.414Z,15.63
2024-05-09T21:45:29.424Z,15.65
2024-05-09T21:47:56.224Z,17.55
2024-05-09T21:50:28.540Z,16.10
2024-05-09T21:53:02.844Z,18.67
2024-05-09T21:55:30.110Z,17.48
2024-05-09T21:57:57.046Z,16.60
2024-05-09T22:00:32.019Z,16.63
2024-05-09T22:03:03.138Z,17.70
2024-05-09T22:05:30.106Z,15.18
2024-05-09T22:07:57.250Z,18.60
2024-05-09T22:10:30.538Z,19.48
2024-05-09T22:13:00.822Z,19.02
2024-05-09T22:15:27.449Z,18.33
2024-05-09T22:17:56.625Z,20.05
2024-05-09T22:20:32.891Z,19.17
2024-05-09T22:23:03.295Z,22.75
2024-05-09T22:25:31.150Z,17.45
2024-05-09T22:27:58.650Z,22.38
2024-05-09T22:30:34.045Z,25.30
2024-05-09T22:33:05.195Z,19.88
2024-05-09T22:35:32.000Z,23.45
2024-05-09T22:37:58.602Z,21.95
2024-05-09T22:40:37.757Z,21.25
2024-05-09T22:43:12.311Z,20.38
2024-05-09T22:45:39.283Z,22.58
2024-05-09T22:48:06.681Z,21.27
2024-05-09T22:50:33.875Z,23.73
2024-05-09T22:53:00.985Z,22.20
2024-05-09T22:55:27.697Z,25.45
2024-05-09T22:57:54.332Z,26.48
2024-05-09T23:00:29.271Z,27.40
2024-05-09T23:02:59.800Z,28.38
2024-05-09T23:05:26.703Z,28.50
2024-05-09T23:07:53.574Z,23.90
2024-05-09T23:10:27.732Z,26.35
2024-05-09T23:12:59.154Z,25.70
2024-05-09T23:15:25.836Z,26.52
2024-05-09T23:17:52.591Z,24.60
2024-05-09T23:20:29.781Z,24.50
2024-05-09T23:23:03.738Z,27.00
2024-05-09T23:25:30.417Z,28.55
2024-05-09T23:27:57.104Z,30.52
2024-05-09T23:30:33.301Z,26.77
2024-05-09T23:33:05.678Z,30.17
2024-05-09T23:35:32.407Z,25.63
2024-05-09T23:37:59.095Z,26.75
2024-05-09T23:40:36.803Z,29.38
2024-05-09T23:43:06.816Z,26.77
2024-05-09T23:45:33.658Z,29.63
2024-05-09T23:48:00.727Z,25.63
2024-05-09T23:50:34.302Z,29.23
2024-05-09T23:53:04.238Z,26.77
2024-05-09T23:55:31.805Z,27.17
2024-05-09T23:57:58.941Z,29.02
